Time;durP1;ratioP1;P1;durP2;ratioP2;P2;SDS_P1;SDS_P2;PMS_P1;PMS_P2;Temp;Humidity;BMP_temperature;BMP_pressure;BME280_temperature;BME280_humidity;BME280_pressure;Samples;Min_cycle;Max_cycle;Signal;HPM_P1;HPM_P2
2023/06/26 01:05:06;;;;;;;11.23;10.43;;;23.10;99.90;;;;;;3417936;28;22254;-61
2023/06/26 01:07:36;;;;;;;7.33;5.03;;;23.00;51.10;;;;;;5042334;28;20290;-61
2023/06/26 01:10:05;;;;;;;5.03;4.47;;;22.90;1.00;;;;;;5023255;28;20212;-61
2023/06/26 01:12:33;;;;;;;7.10;5.00;;;23.00;1.00;;;;;;5041322;28;20228;-61
2023/06/26 01:15:00;;;;;;;5.63;4.97;;;23.10;1.00;;;;;;5040557;28;20200;-61
2023/06/26 01:17:31;;;;;;;5.53;4.90;;;23.00;1.00;;;;;;5039237;28;20207;-61
2023/06/26 01:20:00;;;;;;;5.83;4.57;;;23.10;1.00;;;;;;5039356;28;20223;-61
2023/06/26 01:22:45;;;;;;;5.77;4.50;;;23.10;1.00;;;;;;5043030;28;20254;-61
2023/06/26 01:25:17;;;;;;;5.23;3.57;;;22.80;18.20;;;;;;5038696;28;20598;-60
2023/06/26 01:27:48;;;;;;;5.43;3.70;;;22.70;1.00;;;;;;5040412;28;20231;-61
2023/06/26 01:30:17;;;;;;;5.17;3.50;;;22.80;1.00;;;;;;5038571;28;20566;-61
2023/06/26 01:32:44;;;;;;;6.67;3.70;;;22.70;1.00;;;;;;5038118;28;20223;-61
2023/06/26 01:35:13;;;;;;;6.43;3.70;;;22.60;1.00;;;;;;5040762;28;20208;-61
2023/06/26 01:37:40;;;;;;;5.57;3.17;;;22.60;1.00;;;;;;5037627;28;20201;-61
2023/06/26 01:40:07;;;;;;;4.77;3.30;;;22.60;1.00;;;;;;5039061;28;20234;-61
2023/06/26 01:42:35;;;;;;;5.43;3.63;;;22.60;1.00;;;;;;5039612;28;20201;-61
2023/06/26 01:45:12;;;;;;;6.13;3.50;;;22.80;1.00;;;;;;5038136;28;20275;-62
2023/06/26 01:47:44;;;;;;;4.70;3.07;;;22.70;1.00;;;;;;5040535;28;20196;-61
2023/06/26 01:50:21;;;;;;;4.27;3.53;;;22.70;1.00;;;;;;5038890;28;20338;-62
2023/06/26 01:53:08;;;;;;;5.40;3.40;;;22.60;1.00;;;;;;5037674;28;20623;-61
2023/06/26 01:55:52;;;;;;;5.57;3.50;;;22.50;14.50;;;;;;5028061;28;20219;-61
2023/06/26 01:58:23;;;;;;;5.47;3.40;;;22.30;99.90;;;;;;5041452;28;20210;-61
2023/06/26 02:00:50;;;;;;;5.63;3.70;;;22.40;99.90;;;;;;5041756;28;20614;-61
2023/06/26 02:03:17;;;;;;;4.47;3.63;;;22.30;99.90;;;;;;5042428;28;20273;-61
2023/06/26 02:05:44;;;;;;;4.40;3.07;;;22.20;99.90;;;;;;5042213;28;20578;-61
2023/06/26 02:08:15;;;;;;;4.57;3.33;;;22.20;99.90;;;;;;5039585;28;20203;-61
2023/06/26 02:10:42;;;;;;;7.47;3.23;;;22.20;99.90;;;;;;5041875;28;20609;-61
2023/06/26 02:13:08;;;;;;;8.03;3.77;;;22.40;99.90;;;;;;5041805;28;20246;-61
2023/06/26 02:15:35;;;;;;;5.23;3.30;;;22.20;99.90;;;;;;5040620;28;20196;-61
2023/06/26 02:18:02;;;;;;;7.63;3.20;;;22.10;99.90;;;;;;5022234;28;20203;-61
2023/06/26 02:20:29;;;;;;;4.53;3.43;;;21.90;1.00;;;;;;5021750;28;20210;-61
2023/06/26 02:22:56;;;;;;;5.77;3.50;;;21.90;1.00;;;;;;5035770;28;20676;-61
2023/06/26 02:25:22;;;;;;;4.77;3.30;;;21.90;1.00;;;;;;5037114;28;20242;-60
2023/06/26 02:27:49;;;;;;;7.93;3.77;;;21.80;1.00;;;;;;5038283;28;21335;-60
2023/06/26 02:30:16;;;;;;;4.47;3.90;;;21.90;1.00;;;;;;5040308;28;20212;-60
2023/06/26 02:32:43;;;;;;;6.00;3.47;;;21.80;1.00;;;;;;5038129;28;20214;-60
2023/06/26 02:35:10;;;;;;;8.93;3.63;;;21.70;1.00;;;;;;5039061;28;20204;-60
2023/06/26 02:37:37;;;;;;;5.90;3.77;;;21.70;1.00;;;;;;5038502;28;20650;-61
2023/06/26 02:40:05;;;;;;;4.03;3.03;;;21.90;1.00;;;;;;5027552;28;20309;-60
2023/06/26 02:42:32;;;;;;;7.43;3.30;;;21.70;1.00;;;;;;5021639;28;20288;-60
2023/06/26 02:44:59;;;;;;;7.93;4.10;;;21.70;1.00;;;;;;5038058;28;20317;-60
2023/06/26 02:47:25;;;;;;;4.80;3.33;;;21.80;1.00;;;;;;5025050;28;20873;-60
2023/06/26 02:49:52;;;;;;;5.83;3.50;;;21.50;1.00;;;;;;5039024;28;20594;-60
2023/06/26 02:52:19;;;;;;;7.67;3.40;;;21.40;1.00;;;;;;5019847;28;20204;-60
2023/06/26 02:54:46;;;;;;;7.40;3.40;;;21.40;1.00;;;;;;5025700;28;20205;-60
2023/06/26 02:57:14;;;;;;;7.80;3.30;;;21.30;99.90;;;;;;5037825;28;20209;-60
2023/06/26 02:59:41;;;;;;;6.80;4.13;;;21.30;99.90;;;;;;5020959;28;20648;-60
2023/06/26 03:02:08;;;;;;;9.40;4.00;;;21.20;99.90;;;;;;5020672;28;20204;-60
2023/06/26 03:04:36;;;;;;;8.90;3.70;;;21.20;1.00;;;;;;5038708;28;20200;-60
2023/06/26 03:07:04;;;;;;;9.33;3.90;;;21.40;1.00;;;;;;5039503;28;20251;-60
2023/06/26 03:09:31;;;;;;;8.13;3.77;;;21.40;1.00;;;;;;5039279;28;20289;-61
2023/06/26 03:11:58;;;;;;;11.93;4.20;;;21.30;1.00;;;;;;5039030;28;20201;-60
2023/06/26 03:14:26;;;;;;;12.23;4.00;;;21.30;1.00;;;;;;5038226;28;20660;-60
2023/06/26 03:16:56;;;;;;;9.47;3.97;;;21.10;1.00;;;;;;5037640;28;20208;-60
2023/06/26 03:19:24;;;;;;;9.53;4.57;;;21.10;99.90;;;;;;5038109;28;20772;-60
2023/06/26 03:21:51;;;;;;;9.03;4.17;;;21.30;81.50;;;;;;5038231;28;20291;-60
2023/06/26 03:24:17;;;;;;;14.23;4.77;;;21.20;1.00;;;;;;5020863;28;20204;-61
2023/06/26 03:26:44;;;;;;;10.20;4.60;;;21.00;99.90;;;;;;5037011;28;20210;-60
2023/06/26 03:29:11;;;;;;;10.97;3.97;;;21.10;99.90;;;;;;5023427;28;20729;-60
2023/06/26 03:31:38;;;;;;;10.40;3.90;;;21.20;99.90;;;;;;5042659;28;20204;-60
2023/06/26 03:34:05;;;;;;;8.53;4.13;;;21.00;99.90;;;;;;5017471;28;20285;-61
2023/06/26 03:36:31;;;;;;;7.87;3.90;;;21.00;1.00;;;;;;5023875;28;20209;-61
2023/06/26 03:38:59;;;;;;;12.47;4.00;;;20.80;1.00;;;;;;5037748;28;20219;-61
2023/06/26 03:41:26;;;;;;;8.53;3.87;;;21.00;1.00;;;;;;5020842;28;20259;-60
2023/06/26 03:43:53;;;;;;;7.03;4.50;;;21.10;99.90;;;;;;5041455;28;20208;-60
2023/06/26 03:46:19;;;;;;;8.47;4.60;;;21.10;1.00;;;;;;5038010;28;20246;-61
2023/06/26 03:48:46;;;;;;;9.73;4.33;;;21.00;1.00;;;;;;5036187;28;20652;-61
2023/06/26 03:51:14;;;;;;;11.73;4.77;;;21.20;99.90;;;;;;5039804;28;20200;-62
2023/06/26 03:53:40;;;;;;;11.73;4.63;;;21.10;1.00;;;;;;5034083;28;20204;-61
2023/06/26 03:56:07;;;;;;;12.50;4.80;;;20.90;1.00;;;;;;5036255;28;20616;-60
2023/06/26 03:58:34;;;;;;;9.27;4.87;;;21.00;1.00;;;;;;5040164;28;20670;-61
2023/06/26 04:01:01;;;;;;;9.77;4.10;;;20.90;1.00;;;;;;5039241;28;20284;-61
2023/06/26 04:03:29;;;;;;;14.07;5.37;;;20.80;1.00;;;;;;5019759;28;20203;-61
2023/06/26 04:05:56;;;;;;;10.57;4.60;;;20.90;1.00;;;;;;5036174;28;20239;-61
2023/06/26 04:08:26;;;;;;;9.80;4.00;;;20.70;1.00;;;;;;5037830;28;20356;-61
2023/06/26 04:10:55;;;;;;;11.17;4.47;;;20.70;99.90;;;;;;5036103;28;20695;-61
2023/06/26 04:13:21;;;;;;;12.03;4.40;;;20.80;1.00;;;;;;5016724;28;20640;-61
2023/06/26 04:15:48;;;;;;;11.23;4.37;;;20.70;99.90;;;;;;5040126;28;20200;-61
2023/06/26 04:18:15;;;;;;;9.73;4.60;;;20.70;99.90;;;;;;5023235;28;20231;-60
2023/06/26 04:21:05;;;;;;;10.50;4.47;;;20.50;1.00;;;;;;5039482;28;20285;-60
2023/06/26 04:23:32;;;;;;;11.50;4.43;;;20.70;99.90;;;;;;5002972;28;20200;-60
2023/06/26 04:25:59;;;;;;;9.37;4.53;;;20.70;99.90;;;;;;5040140;28;20199;-61
2023/06/26 04:28:26;;;;;;;11.20;4.23;;;20.70;1.00;;;;;;5021290;28;20208;-61
2023/06/26 04:30:53;;;;;;;13.80;5.00;;;20.60;99.20;;;;;;5039061;28;20250;-60
2023/06/26 04:33:20;;;;;;;11.93;4.80;;;20.60;99.90;;;;;;5037509;28;20231;-61
2023/06/26 04:35:48;;;;;;;14.37;4.33;;;20.50;99.90;;;;;;5038714;28;20212;-61
2023/06/26 04:38:15;;;;;;;11.33;4.47;;;20.60;99.90;;;;;;5038691;28;20204;-61
2023/06/26 04:40:42;;;;;;;11.37;4.57;;;20.60;99.90;;;;;;5036238;28;20273;-61
2023/06/26 04:43:09;;;;;;;10.57;4.43;;;20.80;1.00;;;;;;5036141;28;20212;-61
2023/06/26 04:45:36;;;;;;;15.43;5.77;;;20.80;1.00;;;;;;5018836;28;20248;-61
2023/06/26 04:48:03;;;;;;;13.43;4.33;;;20.70;29.50;;;;;;5034747;28;20201;-61
2023/06/26 04:50:31;;;;;;;10.63;4.20;;;20.60;1.00;;;;;;5035161;28;20206;-60
2023/06/26 04:52:58;;;;;;;12.13;4.57;;;20.60;92.80;;;;;;5035566;28;20297;-61
2023/06/26 04:55:24;;;;;;;13.83;4.80;;;20.70;1.00;;;;;;5033668;28;20307;-60
2023/06/26 04:57:52;;;;;;;12.93;5.90;;;20.50;1.00;;;;;;5034011;28;20204;-61
2023/06/26 05:00:18;;;;;;;10.10;4.47;;;20.40;99.90;;;;;;5017792;28;20220;-64
2023/06/26 05:02:46;;;;;;;9.80;4.57;;;20.50;99.90;;;;;;5034463;28;20250;-60
2023/06/26 05:05:13;;;;;;;10.57;4.57;;;20.40;99.90;;;;;;5035993;28;20236;-60
2023/06/26 05:07:42;;;;;;;13.83;4.20;;;20.60;99.90;;;;;;5038295;28;20204;-61
2023/06/26 05:10:09;;;;;;;11.50;4.40;;;20.60;99.90;;;;;;5033404;28;20208;-60
2023/06/26 05:12:36;;;;;;;11.30;3.80;;;20.60;1.00;;;;;;5036465;28;20672;-60
2023/06/26 05:15:05;;;;;;;11.27;4.73;;;20.60;1.00;;;;;;5035902;28;20868;-62
2023/06/26 05:17:32;;;;;;;10.03;3.93;;;20.50;99.90;;;;;;5038860;28;20670;-62
2023/06/26 05:19:59;;;;;;;10.60;4.33;;;20.60;1.00;;;;;;5040082;28;20737;-61
2023/06/26 05:22:26;;;;;;;14.47;4.63;;;20.80;50.00;;;;;;5041240;28;20200;-63
2023/06/26 05:24:55;;;;;;;17.77;4.63;;;20.90;1.00;;;;;;5037263;28;20628;-64
2023/06/26 05:27:22;;;;;;;13.97;4.13;;;20.90;99.90;;;;;;5041006;28;20215;-60
2023/06/26 05:29:49;;;;;;;8.17;3.83;;;20.80;99.90;;;;;;5038402;28;20209;-63
2023/06/26 05:32:17;;;;;;;12.80;4.27;;;20.80;1.00;;;;;;5022244;28;20239;-62
2023/06/26 05:34:48;;;;;;;12.70;4.30;;;20.70;99.90;;;;;;5039236;28;20346;-62
2023/06/26 05:37:20;;;;;;;9.20;4.07;;;20.80;1.00;;;;;;5022707;28;20196;-62
2023/06/26 05:39:48;;;;;;;11.70;4.33;;;20.80;1.00;;;;;;5039111;28;20211;-62
2023/06/26 05:42:15;;;;;;;7.90;3.50;;;21.00;99.90;;;;;;5039222;28;20207;-62
2023/06/26 05:44:42;;;;;;;8.77;3.80;;;21.00;1.00;;;;;;5038083;28;20201;-62
2023/06/26 05:47:09;;;;;;;11.80;3.87;;;21.00;99.90;;;;;;5038131;28;20633;-63
2023/06/26 05:49:36;;;;;;;6.93;3.60;;;21.30;1.00;;;;;;5038336;28;20204;-62
2023/06/26 05:52:03;;;;;;;9.80;3.90;;;21.00;1.00;;;;;;4686513;28;10000368;-62
2023/06/26 05:54:30;;;;;;;12.70;3.90;;;21.10;1.00;;;;;;5006961;28;20688;-61
2023/06/26 05:57:01;;;;;;;11.17;4.13;;;21.10;1.00;;;;;;5038283;28;20655;-63
2023/06/26 05:59:31;;;;;;;16.40;4.93;;;21.10;1.00;;;;;;5012661;28;20228;-61
2023/06/26 06:01:58;;;;;;;15.67;4.00;;;21.30;1.00;;;;;;5007224;28;20271;-61
2023/06/26 06:04:25;;;;;;;9.80;3.17;;;21.20;1.00;;;;;;5037721;28;20212;-61
2023/06/26 06:06:52;;;;;;;10.73;3.80;;;21.10;1.00;;;;;;5041647;28;20323;-61
2023/06/26 06:09:19;;;;;;;9.70;3.53;;;21.30;1.00;;;;;;5036769;28;20327;-61
2023/06/26 06:11:46;;;;;;;9.93;3.50;;;21.30;1.00;;;;;;5033031;28;20192;-60
2023/06/26 06:14:12;;;;;;;10.70;4.10;;;21.30;1.00;;;;;;5034012;28;20220;-60
2023/06/26 06:16:39;;;;;;;9.43;4.50;;;21.50;99.90;;;;;;5019260;28;20200;-60
2023/06/26 06:19:07;;;;;;;6.77;3.30;;;21.60;99.90;;;;;;5017825;28;20213;-60
2023/06/26 06:21:34;;;;;;;8.30;3.33;;;21.80;99.90;;;;;;5042679;28;20212;-61
2023/06/26 06:24:01;;;;;;;10.03;3.73;;;21.70;99.90;;;;;;5040033;28;20231;-61
2023/06/26 06:26:28;;;;;;;12.90;3.73;;;21.60;99.90;;;;;;5039752;28;20595;-58
2023/06/26 06:28:54;;;;;;;8.50;3.90;;;21.60;99.90;;;;;;5028452;28;20581;-57
2023/06/26 06:31:21;;;;;;;10.83;2.77;;;22.10;42.20;;;;;;5041295;28;20254;-57
2023/06/26 06:33:48;;;;;;;7.33;2.77;;;22.20;1.00;;;;;;5039476;28;20209;-57
2023/06/26 06:36:15;;;;;;;5.30;2.53;;;22.00;1.00;;;;;;5038997;28;20201;-57
2023/06/26 06:38:45;;;;;;;5.83;2.60;;;22.30;99.90;;;;;;5039046;28;20729;-61
2023/06/26 06:41:12;;;;;;;6.57;2.90;;;22.30;99.90;;;;;;5036496;28;20591;-59
2023/06/26 06:43:39;;;;;;;4.87;2.40;;;22.50;1.00;;;;;;5033347;28;20278;-57
2023/06/26 06:46:06;;;;;;;4.90;2.93;;;22.50;99.90;;;;;;5021837;28;20277;-57
2023/06/26 06:48:33;;;;;;;7.67;2.53;;;22.60;99.90;;;;;;5040041;28;20200;-56
2023/06/26 06:51:00;;;;;;;9.23;3.17;;;22.20;99.90;;;;;;5041095;28;20204;-58
2023/06/26 06:53:27;;;;;;;8.37;2.80;;;22.30;1.00;;;;;;5036413;28;20208;-55
2023/06/26 06:55:54;;;;;;;6.87;2.90;;;22.40;99.90;;;;;;5037875;28;20261;-59
2023/06/26 06:58:22;;;;;;;6.70;2.80;;;22.10;1.00;;;;;;5038273;28;20207;-58
2023/06/26 07:00:51;;;;;;;7.87;3.30;;;22.60;99.90;;;;;;5037911;28;20580;-56
2023/06/26 07:03:18;;;;;;;5.60;2.27;;;22.90;99.90;;;;;;5038685;28;20594;-56
2023/06/26 07:05:45;;;;;;;8.40;2.70;;;23.30;99.90;;;;;;5033787;28;20226;-56
2023/06/26 07:08:12;;;;;;;6.53;2.90;;;23.50;99.90;;;;;;5033868;28;20239;-56
2023/06/26 07:10:38;;;;;;;5.33;2.70;;;23.40;72.40;;;;;;5018431;28;20212;-58
2023/06/26 07:13:06;;;;;;;6.90;2.90;;;23.10;99.90;;;;;;5035478;28;20649;-57
2023/06/26 07:15:33;;;;;;;6.60;2.30;;;22.70;99.90;;;;;;5035947;28;20203;-58
2023/06/26 07:18:00;;;;;;;7.07;2.33;;;23.20;99.90;;;;;;5037411;28;20216;-56
2023/06/26 07:20:27;;;;;;;5.17;2.63;;;23.30;99.90;;;;;;5036987;28;20234;-63
2023/06/26 07:22:54;;;;;;;5.13;2.63;;;22.60;99.90;;;;;;5033867;28;20253;-58
2023/06/26 07:25:21;;;;;;;4.77;2.47;;;23.30;99.90;;;;;;5020024;28;20653;-57
2023/06/26 07:27:48;;;;;;;5.40;2.47;;;23.20;79.90;;;;;;5037993;28;20295;-63
2023/06/26 07:30:15;;;;;;;4.03;2.47;;;23.00;57.00;;;;;;5038585;28;20207;-58
2023/06/26 07:32:44;;;;;;;4.03;2.30;;;22.90;99.90;;;;;;5033402;28;20203;-59
2023/06/26 07:35:11;;;;;;;4.87;2.47;;;23.50;1.00;;;;;;5035558;28;20209;-57
2023/06/26 07:37:38;;;;;;;5.37;1.93;;;23.40;1.00;;;;;;5015866;28;20258;-59
2023/06/26 07:40:06;;;;;;;7.50;2.70;;;23.20;1.00;;;;;;5018182;28;20285;-58
2023/06/26 07:42:33;;;;;;;3.90;2.67;;;22.90;1.00;;;;;;5016583;28;20203;-58
2023/06/26 07:45:00;;;;;;;3.53;2.00;;;22.80;99.90;;;;;;5002797;28;20279;-59
2023/06/26 07:47:26;;;;;;;2.83;2.10;;;24.10;1.00;;;;;;5037161;28;20287;-59
2023/06/26 07:49:53;;;;;;;6.60;2.03;;;25.40;1.00;;;;;;5032940;28;20207;-58
2023/06/26 07:52:20;;;;;;;3.40;1.90;;;24.80;1.00;;;;;;5035512;28;20216;-63
2023/06/26 07:54:47;;;;;;;5.40;2.70;;;24.20;1.00;;;;;;5016358;28;20200;-59
2023/06/26 07:57:14;;;;;;;3.73;2.17;;;24.00;1.00;;;;;;5037088;28;20250;-58
2023/06/26 07:59:41;;;;;;;2.40;1.50;;;24.10;1.00;;;;;;5037617;28;20194;-62
2023/06/26 08:02:08;;;;;;;4.43;1.80;;;23.80;1.00;;;;;;5027871;28;20221;-65
2023/06/26 08:04:34;;;;;;;4.03;1.90;;;23.80;1.00;;;;;;5032373;28;20203;-64
2023/06/26 08:07:03;;;;;;;5.87;1.73;;;24.80;1.00;;;;;;5033790;28;20372;-63
2023/06/26 08:09:30;;;;;;;5.93;2.03;;;25.00;1.00;;;;;;5028414;28;20199;-58
2023/06/26 08:11:58;;;;;;;3.00;1.30;;;24.80;1.00;;;;;;5030389;28;20206;-59
2023/06/26 08:14:25;;;;;;;8.07;1.70;;;23.80;1.00;;;;;;5032867;28;20207;-61
2023/06/26 08:16:52;;;;;;;3.93;2.07;;;24.10;1.00;;;;;;5019673;28;20235;-57
2023/06/26 08:19:19;;;;;;;2.47;1.40;;;24.00;1.00;;;;;;5035167;28;20226;-58
2023/06/26 08:21:47;;;;;;;3.77;1.30;;;23.80;1.00;;;;;;5032647;28;20304;-58
2023/06/26 08:24:16;;;;;;;4.43;2.17;;;24.00;1.00;;;;;;5036758;28;20770;-64
2023/06/26 08:26:46;;;;;;;3.07;1.40;;;24.70;1.00;;;;;;5037853;28;20211;-63
2023/06/26 08:29:12;;;;;;;3.07;1.33;;;25.10;1.00;;;;;;5028404;28;20306;-57
2023/06/26 08:31:40;;;;;;;4.53;1.17;;;25.10;1.00;;;;;;5022609;28;20200;-59
2023/06/26 08:34:08;;;;;;;3.13;1.10;;;25.10;1.00;;;;;;5035216;28;20296;-57
2023/06/26 08:36:35;;;;;;;4.33;1.23;;;25.80;1.00;;;;;;5016823;28;20200;-59
2023/06/26 08:39:02;;;;;;;3.07;1.13;;;26.70;99.90;;;;;;5029680;28;20655;-59
2023/06/26 08:41:29;;;;;;;3.87;1.90;;;26.90;99.90;;;;;;5018530;28;20223;-58
2023/06/26 08:43:57;;;;;;;3.13;1.10;;;27.20;99.90;;;;;;5032871;28;20206;-58
2023/06/26 08:46:23;;;;;;;7.40;1.83;;;26.70;99.90;;;;;;5036283;28;20199;-57
2023/06/26 08:49:36;;;;;;;4.17;1.20;;;27.30;99.90;;;;;;5035771;28;20776;-59
2023/06/26 08:52:13;;;;;;;3.47;1.53;;;27.40;99.90;;;;;;5036935;28;20199;-58
2023/06/26 08:54:46;;;;;;;4.13;1.07;;;26.20;99.90;;;;;;5035297;28;20207;-57
2023/06/26 08:57:15;;;;;;;2.53;1.30;;;26.10;99.90;;;;;;5038479;28;20231;-57
2023/06/26 08:59:45;;;;;;;3.00;1.50;;;25.70;99.90;;;;;;5037256;28;20213;-57
2023/06/26 09:02:13;;;;;;;5.03;1.60;;;25.10;99.90;;;;;;5039527;28;20220;-58
2023/06/26 09:04:40;;;;;;;1.50;1.00;;;24.60;99.90;;;;;;5041307;28;20201;-58
2023/06/26 09:07:07;;;;;;;3.37;1.10;;;25.50;99.90;;;;;;5020079;28;20242;-58
2023/06/26 09:09:35;;;;;;;1.63;0.90;;;26.30;99.90;;;;;;5020850;28;20203;-57
2023/06/26 09:12:03;;;;;;;4.00;1.20;;;26.50;99.90;;;;;;5040921;28;20253;-61
2023/06/26 09:14:30;;;;;;;1.90;0.90;;;25.70;99.90;;;;;;5035605;28;20203;-59
2023/06/26 09:16:57;;;;;;;3.43;1.40;;;25.20;99.90;;;;;;5037988;28;20213;-57
2023/06/26 09:19:24;;;;;;;3.87;2.00;;;25.20;1.00;;;;;;5039644;28;20239;-57
2023/06/26 09:21:54;;;;;;;4.53;1.60;;;24.70;1.00;;;;;;5038090;28;20220;-57
2023/06/26 09:24:22;;;;;;;3.37;1.27;;;25.00;1.00;;;;;;5038376;28;20648;-58
2023/06/26 09:26:50;;;;;;;5.13;1.40;;;25.60;99.90;;;;;;5039813;28;20195;-58
2023/06/26 09:29:19;;;;;;;4.40;1.10;;;25.30;1.00;;;;;;5038445;28;20290;-57
2023/06/26 09:31:46;;;;;;;4.07;1.23;;;25.00;1.00;;;;;;5037226;28;20211;-58
2023/06/26 09:34:13;;;;;;;5.97;1.53;;;24.40;1.00;;;;;;5023380;28;20227;-59
2023/06/26 09:36:42;;;;;;;2.77;1.03;;;24.70;1.00;;;;;;5035164;28;20633;-59
2023/06/26 09:39:12;;;;;;;3.47;1.30;;;25.40;1.00;;;;;;5022529;28;20699;-59
2023/06/26 09:41:42;;;;;;;2.15;1.27;;;25.90;1.00;;;;;;5036025;28;20220;-58
2023/06/26 09:44:13;;;;;;;4.78;1.20;;;25.30;1.00;;;;;;5016073;28;20693;-58
2023/06/26 09:46:40;;;;;;;5.20;1.35;;;24.90;1.00;;;;;;5037092;28;20342;-59
2023/06/26 09:49:12;;;;;;;3.23;1.10;;;24.10;1.00;;;;;;5040576;28;20670;-60
2023/06/26 09:51:41;;;;;;;2.53;1.13;;;24.10;1.00;;;;;;5040431;28;20201;-59
2023/06/26 09:54:09;;;;;;;2.50;1.00;;;23.60;1.00;;;;;;5039846;28;20208;-61
2023/06/26 09:56:36;;;;;;;5.60;1.20;;;24.10;1.00;;;;;;5041848;28;20617;-60
2023/06/26 09:59:05;;;;;;;3.63;1.10;;;23.90;99.90;;;;;;5042137;28;20204;-60
2023/06/26 10:01:33;;;;;;;4.17;1.07;;;24.40;99.90;;;;;;5022667;28;20217;-68
2023/06/26 10:04:00;;;;;;;2.90;1.10;;;24.30;1.00;;;;;;5021568;28;20649;-63
2023/06/26 10:06:39;;;;;;;4.13;0.80;;;24.70;99.90;;;;;;5038045;28;20228;-61
2023/06/26 10:09:08;;;;;;;2.55;0.82;;;24.70;99.90;;;;;;5038840;28;20298;-60
2023/06/26 10:11:47;;;;;;;4.00;0.90;;;24.70;99.90;;;;;;5040969;28;20202;-60
2023/06/26 10:14:15;;;;;;;2.88;0.88;;;24.50;99.90;;;;;;5039874;28;20618;-59
2023/06/26 10:16:46;;;;;;;2.47;1.00;;;24.40;99.90;;;;;;5036761;28;20206;-59
2023/06/26 10:19:16;;;;;;;3.67;0.97;;;23.80;99.90;;;;;;5021306;28;20326;-60
2023/06/26 10:21:44;;;;;;;1.13;0.77;;;23.30;99.90;;;;;;5038181;28;20558;-60
2023/06/26 10:24:13;;;;;;;2.30;0.90;;;23.20;99.90;;;;;;5036226;28;20196;-59
2023/06/26 10:26:44;;;;;;;2.63;0.90;;;23.00;99.90;;;;;;5038178;28;20196;-59
2023/06/26 10:29:13;;;;;;;6.00;1.30;;;23.00;99.90;;;;;;5037084;28;20663;-59
2023/06/26 10:31:45;;;;;;;4.13;0.90;;;23.20;99.90;;;;;;5035213;28;20775;-59
2023/06/26 10:34:13;;;;;;;3.03;1.10;;;23.20;99.90;;;;;;5038104;28;20218;-59
2023/06/26 10:36:41;;;;;;;1.20;0.70;;;23.20;99.90;;;;;;5037733;28;20202;-60
2023/06/26 10:39:08;;;;;;;1.17;0.87;;;23.20;99.90;;;;;;5037372;28;20346;-60
2023/06/26 10:41:41;;;;;;;2.33;0.90;;;23.30;99.90;;;;;;5039220;28;20224;-60
2023/06/26 10:44:26;;;;;;;2.30;1.17;;;23.10;99.90;;;;;;5038352;28;20204;-59
2023/06/26 10:46:54;;;;;;;2.93;1.20;;;23.30;99.90;;;;;;5036994;28;20197;-59
2023/06/26 10:49:26;;;;;;;3.67;1.10;;;23.40;99.90;;;;;;5039204;28;20212;-61
2023/06/26 10:51:54;;;;;;;3.93;1.17;;;23.70;99.90;;;;;;5036688;28;21111;-58
2023/06/26 10:54:21;;;;;;;3.33;0.90;;;23.70;99.90;;;;;;5035166;28;20211;-58
2023/06/26 10:56:50;;;;;;;1.60;1.10;;;23.70;99.90;;;;;;5038036;28;20541;-59
2023/06/26 10:59:22;;;;;;;4.27;1.20;;;23.70;99.90;;;;;;5039757;28;20211;-61
2023/06/26 11:02:00;;;;;;;2.20;1.00;;;23.20;99.90;;;;;;5037645;28;20227;-60
2023/06/26 11:04:37;;;;;;;5.30;1.20;;;23.30;99.90;;;;;;5037149;28;20200;-62
2023/06/26 11:07:20;;;;;;;2.47;1.23;;;23.50;99.90;;;;;;5036540;28;20321;-63
2023/06/26 11:10:16;;;;;;;1.73;0.97;;;23.60;99.90;;;;;;5035054;28;20215;-62
2023/06/26 11:12:47;;;;;;;2.03;1.10;;;24.10;99.90;;;;;;5036616;28;20215;-61
2023/06/26 11:15:16;;;;;;;3.13;1.10;;;24.50;99.90;;;;;;5037225;28;20309;-61
2023/06/26 11:17:44;;;;;;;3.33;1.10;;;24.70;99.90;;;;;;5035253;28;20211;-61
2023/06/26 11:20:13;;;;;;;3.30;1.30;;;24.80;99.90;;;;;;5036471;28;20240;-62
2023/06/26 11:22:42;;;;;;;2.23;1.23;;;24.50;99.90;;;;;;5037518;28;20340;-60
2023/06/26 11:25:11;;;;;;;3.53;1.30;;;24.40;99.90;;;;;;5036434;28;20652;-61
2023/06/26 11:27:39;;;;;;;2.40;1.10;;;24.30;99.90;;;;;;5026111;28;20204;-62
2023/06/26 11:30:07;;;;;;;2.93;1.10;;;23.80;99.90;;;;;;5036932;28;20539;-61
2023/06/26 11:32:36;;;;;;;2.90;1.40;;;23.80;99.90;;;;;;5037365;28;20640;-65
2023/06/26 11:35:04;;;;;;;5.13;1.10;;;24.10;99.90;;;;;;5037446;28;20196;-61
2023/06/26 11:37:34;;;;;;;2.13;1.03;;;24.30;99.90;;;;;;5036716;28;20204;-62
2023/06/26 11:40:16;;;;;;;2.13;1.00;;;24.10;99.90;;;;;;5035912;28;20211;-64
2023/06/26 11:42:44;;;;;;;1.67;1.10;;;24.30;99.90;;;;;;5036424;28;20673;-63
2023/06/26 11:45:11;;;;;;;4.77;1.27;;;24.10;99.90;;;;;;5036847;28;20284;-61
2023/06/26 11:47:39;;;;;;;2.83;1.20;;;24.30;99.90;;;;;;5036846;28;20211;-62
2023/06/26 11:50:06;;;;;;;3.60;1.13;;;24.40;99.90;;;;;;5037095;28;20204;-61
2023/06/26 11:52:33;;;;;;;3.17;1.30;;;24.40;99.90;;;;;;5038263;28;20284;-62
2023/06/26 11:55:00;;;;;;;1.80;1.17;;;24.10;99.90;;;;;;5036772;28;20206;-62
2023/06/26 11:57:30;;;;;;;1.57;1.20;;;24.50;99.90;;;;;;5036664;28;20212;-61
2023/06/26 11:59:57;;;;;;;2.57;1.27;;;25.20;99.90;;;;;;5036084;28;20641;-61
2023/06/26 12:02:23;;;;;;;5.43;1.13;;;24.70;99.90;;;;;;5036304;28;20211;-62
2023/06/26 12:04:50;;;;;;;4.10;1.10;;;24.80;99.90;;;;;;5021488;28;20196;-64
2023/06/26 12:07:18;;;;;;;2.10;1.00;;;25.30;99.90;;;;;;5037952;28;20314;-63
2023/06/26 12:09:48;;;;;;;2.73;1.10;;;25.40;99.90;;;;;;5036723;28;20200;-62
2023/06/26 12:12:17;;;;;;;5.67;1.20;;;25.20;99.90;;;;;;5036560;28;20208;-62
2023/06/26 12:14:45;;;;;;;3.57;1.10;;;25.20;99.90;;;;;;5038516;28;20512;-61
2023/06/26 12:17:13;;;;;;;1.10;1.00;;;25.30;99.90;;;;;;5033194;28;20199;-61
2023/06/26 12:19:47;;;;;;;1.00;0.90;;;25.10;99.90;;;;;;5037480;28;20309;-60
2023/06/26 12:22:14;;;;;;;1.73;0.97;;;25.00;99.90;;;;;;5035659;28;20610;-60
2023/06/26 12:24:42;;;;;;;2.47;1.30;;;25.40;99.90;;;;;;5035401;28;20260;-61
2023/06/26 12:27:11;;;;;;;3.97;0.90;;;25.00;99.90;;;;;;5042802;28;20203;-61
2023/06/26 12:29:40;;;;;;;2.33;1.30;;;24.60;99.90;;;;;;5044280;28;20205;-60
2023/06/26 12:32:10;;;;;;;2.17;1.00;;;24.80;99.90;;;;;;5024399;28;20227;-60
2023/06/26 12:34:39;;;;;;;2.20;1.00;;;24.80;99.90;;;;;;5025682;28;20267;-60
2023/06/26 12:37:11;;;;;;;4.33;0.93;;;25.10;99.90;;;;;;5044337;28;20211;-61
2023/06/26 12:39:47;;;;;;;1.43;1.07;;;24.80;99.90;;;;;;5043830;28;20253;-61
2023/06/26 12:42:23;;;;;;;1.53;0.97;;;24.60;99.90;;;;;;5023958;28;20223;-62
2023/06/26 12:44:51;;;;;;;1.65;0.98;;;25.00;99.90;;;;;;5024500;28;20203;-61
2023/06/26 12:47:23;;;;;;;2.63;1.03;;;24.90;99.90;;;;;;5041818;28;20288;-60
2023/06/26 12:49:51;;;;;;;1.50;0.80;;;24.50;99.90;;;;;;5039417;28;20204;-61
2023/06/26 12:52:19;;;;;;;2.37;1.10;;;24.50;99.90;;;;;;5041457;28;20656;-60
2023/06/26 12:54:50;;;;;;;2.40;1.00;;;23.80;99.90;;;;;;5036059;28;20238;-60
2023/06/26 12:57:17;;;;;;;2.33;1.23;;;24.20;99.90;;;;;;5044347;28;20560;-60
2023/06/26 12:59:44;;;;;;;3.73;1.13;;;23.80;99.90;;;;;;5042267;28;20208;-60
2023/06/26 13:02:12;;;;;;;3.43;1.00;;;23.80;99.90;;;;;;5041920;28;20216;-60
2023/06/26 13:04:39;;;;;;;1.57;0.97;;;24.20;99.90;;;;;;5040270;28;22512;-62
2023/06/26 13:07:07;;;;;;;2.23;0.80;;;24.70;99.90;;;;;;5042481;28;20334;-60
2023/06/26 13:09:35;;;;;;;1.55;0.85;;;24.40;99.90;;;;;;5043318;28;20208;-60
2023/06/26 13:12:03;;;;;;;1.80;1.10;;;24.40;99.90;;;;;;5024938;28;20210;-60
2023/06/26 13:14:31;;;;;;;2.47;1.00;;;24.30;99.90;;;;;;5037387;28;20828;-59
2023/06/26 13:16:58;;;;;;;1.63;0.90;;;24.10;99.90;;;;;;5042324;28;20687;-60
2023/06/26 13:19:25;;;;;;;1.10;0.77;;;24.50;99.90;;;;;;5043549;28;20233;-60
2023/06/26 13:21:52;;;;;;;2.70;1.00;;;24.50;99.90;;;;;;5041627;28;20220;-60
2023/06/26 13:24:19;;;;;;;1.83;0.83;;;24.30;99.90;;;;;;5043979;28;20208;-59
2023/06/26 13:26:46;;;;;;;1.20;0.80;;;24.30;99.90;;;;;;5042473;28;20203;-62
2023/06/26 13:29:13;;;;;;;1.90;0.93;;;24.50;99.90;;;;;;5016874;28;20207;-61
2023/06/26 13:31:40;;;;;;;3.67;1.50;;;24.20;99.90;;;;;;5039454;28;20213;-64
2023/06/26 13:34:07;;;;;;;2.40;1.07;;;24.50;99.90;;;;;;5039494;28;20235;-62
2023/06/26 13:36:33;;;;;;;1.80;1.00;;;24.50;99.90;;;;;;5043831;28;20266;-63
2023/06/26 13:39:02;;;;;;;1.97;1.10;;;25.00;99.90;;;;;;5038973;28;20192;-61
2023/06/26 13:41:29;;;;;;;1.20;0.90;;;25.00;99.90;;;;;;5041087;28;20199;-62
2023/06/26 13:43:56;;;;;;;3.17;1.47;;;24.30;99.90;;;;;;5040587;28;20265;-62
2023/06/26 13:46:27;;;;;;;1.80;1.00;;;24.30;99.90;;;;;;5038386;28;20295;-62
2023/06/26 13:48:54;;;;;;;1.50;1.10;;;24.20;99.90;;;;;;5039331;28;20196;-63
2023/06/26 13:51:21;;;;;;;2.40;0.90;;;24.70;99.90;;;;;;5041335;28;20731;-65
2023/06/26 13:53:48;;;;;;;1.43;1.00;;;24.60;99.90;;;;;;5037615;28;20212;-62
2023/06/26 13:56:15;;;;;;;3.33;1.10;;;24.40;99.90;;;;;;5040822;28;21950;-61
2023/06/26 13:58:42;;;;;;;1.63;0.90;;;24.80;99.90;;;;;;5022952;28;20618;-62